sensor_id;sensor_type;location;lat;lon;timestamp;P1;durP1;ratioP1;P2;durP2;ratioP2
24407;SDS011;12542;50.924;4.516;2023-09-12T00:02:09;12.05;;;7.90;;
24407;SDS011;12542;50.924;4.516;2023-09-12T00:04:35;13.75;;;8.23;;
24407;SDS011;12542;50.924;4.516;2023-09-12T00:07:00;10.80;;;7.07;;
24407;SDS011;12542;50.924;4.516;2023-09-12T00:09:26;17.50;;;8.02;;
24407;SDS011;12542;50.924;4.516;2023-09-12T00:11:54;14.55;;;8.70;;
24407;SDS011;12542;50.924;4.516;2023-09-12T00:14:20;13.20;;;8.82;;
24407;SDS011;12542;50.924;4.516;2023-09-12T00:16:47;12.27;;;8.73;;
24407;SDS011;12542;50.924;4.516;2023-09-12T00:19:13;15.43;;;9.23;;
24407;SDS011;12542;50.924;4.516;2023-09-12T00:21:39;17.08;;;9.02;;
24407;SDS011;12542;50.924;4.516;2023-09-12T00:24:06;13.30;;;8.88;;
24407;SDS011;12542;50.924;4.516;2023-09-12T00:26:31;17.88;;;9.23;;
24407;SDS011;12542;50.924;4.516;2023-09-12T00:28:58;15.45;;;9.25;;
24407;SDS011;12542;50.924;4.516;2023-09-12T00:31:26;13.93;;;8.63;;
24407;SDS011;12542;50.924;4.516;2023-09-12T00:33:52;16.08;;;9.70;;
24407;SDS011;12542;50.924;4.516;2023-09-12T00:36:20;14.98;;;9.57;;
24407;SDS011;12542;50.924;4.516;2023-09-12T00:38:45;14.52;;;10.02;;
24407;SDS011;12542;50.924;4.516;2023-09-12T00:41:11;14.70;;;9.10;;
24407;SDS011;12542;50.924;4.516;2023-09-12T00:43:37;15.02;;;8.70;;
24407;SDS011;12542;50.924;4.516;2023-09-12T00:46:02;15.85;;;8.18;;
24407;SDS011;12542;50.924;4.516;2023-09-12T00:48:28;15.25;;;8.70;;
24407;SDS011;12542;50.924;4.516;2023-09-12T00:50:54;13.68;;;8.75;;
24407;SDS011;12542;50.924;4.516;2023-09-12T00:53:21;13.52;;;8.57;;
24407;SDS011;12542;50.924;4.516;2023-09-12T00:55:48;11.68;;;7.78;;
24407;SDS011;12542;50.924;4.516;2023-09-12T00:58:19;12.82;;;8.45;;
24407;SDS011;12542;50.924;4.516;2023-09-12T01:00:45;13.50;;;8.45;;
24407;SDS011;12542;50.924;4.516;2023-09-12T01:03:11;13.90;;;8.07;;
24407;SDS011;12542;50.924;4.516;2023-09-12T01:05:37;15.23;;;8.30;;
24407;SDS011;12542;50.924;4.516;2023-09-12T01:08:02;15.35;;;8.48;;
24407;SDS011;12542;50.924;4.516;2023-09-12T01:10:28;12.35;;;8.20;;
24407;SDS011;12542;50.924;4.516;2023-09-12T01:12:54;15.18;;;8.52;;
24407;SDS011;12542;50.924;4.516;2023-09-12T01:15:20;15.68;;;8.70;;
24407;SDS011;12542;50.924;4.516;2023-09-12T01:17:46;13.55;;;8.10;;
24407;SDS011;12542;50.924;4.516;2023-09-12T01:20:14;13.73;;;7.68;;
24407;SDS011;12542;50.924;4.516;2023-09-12T01:28:08;13.30;;;8.32;;
24407;SDS011;12542;50.924;4.516;2023-09-12T01:30:35;13.35;;;8.38;;
24407;SDS011;12542;50.924;4.516;2023-09-12T01:33:04;13.43;;;8.45;;
24407;SDS011;12542;50.924;4.516;2023-09-12T01:35:30;11.32;;;8.10;;
24407;SDS011;12542;50.924;4.516;2023-09-12T01:37:56;16.75;;;8.48;;
24407;SDS011;12542;50.924;4.516;2023-09-12T01:40:29;15.75;;;8.95;;
24407;SDS011;12542;50.924;4.516;2023-09-12T01:43:04;14.88;;;8.70;;
24407;SDS011;12542;50.924;4.516;2023-09-12T01:45:32;16.17;;;9.13;;
24407;SDS011;12542;50.924;4.516;2023-09-12T01:48:00;14.60;;;8.65;;
24407;SDS011;12542;50.924;4.516;2023-09-12T01:50:27;11.68;;;8.68;;
24407;SDS011;12542;50.924;4.516;2023-09-12T01:52:53;12.38;;;8.10;;
24407;SDS011;12542;50.924;4.516;2023-09-12T01:55:20;13.57;;;8.73;;
24407;SDS011;12542;50.924;4.516;2023-09-12T01:57:47;11.52;;;7.68;;
24407;SDS011;12542;50.924;4.516;2023-09-12T02:00:13;15.23;;;8.05;;
24407;SDS011;12542;50.924;4.516;2023-09-12T02:02:41;15.10;;;8.23;;
24407;SDS011;12542;50.924;4.516;2023-09-12T02:05:17;12.40;;;7.72;;
24407;SDS011;12542;50.924;4.516;2023-09-12T02:07:45;12.20;;;7.75;;
24407;SDS011;12542;50.924;4.516;2023-09-12T02:10:11;13.02;;;8.63;;
24407;SDS011;12542;50.924;4.516;2023-09-12T02:12:37;13.15;;;7.60;;
24407;SDS011;12542;50.924;4.516;2023-09-12T02:15:04;14.95;;;8.38;;
24407;SDS011;12542;50.924;4.516;2023-09-12T02:17:30;12.45;;;7.95;;
24407;SDS011;12542;50.924;4.516;2023-09-12T02:19:55;14.85;;;8.57;;
24407;SDS011;12542;50.924;4.516;2023-09-12T02:22:21;14.60;;;9.18;;
24407;SDS011;12542;50.924;4.516;2023-09-12T02:24:49;17.70;;;9.48;;
24407;SDS011;12542;50.924;4.516;2023-09-12T02:27:15;20.23;;;10.68;;
24407;SDS011;12542;50.924;4.516;2023-09-12T02:29:41;15.80;;;10.52;;
24407;SDS011;12542;50.924;4.516;2023-09-12T02:32:07;17.23;;;10.57;;
24407;SDS011;12542;50.924;4.516;2023-09-12T02:34:33;20.17;;;11.43;;
24407;SDS011;12542;50.924;4.516;2023-09-12T02:36:59;21.23;;;12.00;;
24407;SDS011;12542;50.924;4.516;2023-09-12T02:39:25;20.48;;;12.45;;
24407;SDS011;12542;50.924;4.516;2023-09-12T02:41:51;25.88;;;14.32;;
24407;SDS011;12542;50.924;4.516;2023-09-12T02:44:17;24.77;;;13.07;;
24407;SDS011;12542;50.924;4.516;2023-09-12T02:46:42;27.00;;;15.52;;
24407;SDS011;12542;50.924;4.516;2023-09-12T02:49:10;33.08;;;18.48;;
24407;SDS011;12542;50.924;4.516;2023-09-12T02:51:39;35.42;;;20.40;;
24407;SDS011;12542;50.924;4.516;2023-09-12T02:54:05;37.35;;;21.67;;
24407;SDS011;12542;50.924;4.516;2023-09-12T02:56:31;35.03;;;20.75;;
24407;SDS011;12542;50.924;4.516;2023-09-12T02:58:56;37.38;;;21.33;;
24407;SDS011;12542;50.924;4.516;2023-09-12T03:01:22;36.38;;;20.50;;
24407;SDS011;12542;50.924;4.516;2023-09-12T03:03:52;36.72;;;20.80;;
24407;SDS011;12542;50.924;4.516;2023-09-12T03:06:19;35.85;;;20.40;;
24407;SDS011;12542;50.924;4.516;2023-09-12T03:08:44;33.95;;;20.65;;
24407;SDS011;12542;50.924;4.516;2023-09-12T03:11:11;36.97;;;20.05;;
24407;SDS011;12542;50.924;4.516;2023-09-12T03:13:39;36.30;;;22.25;;
24407;SDS011;12542;50.924;4.516;2023-09-12T03:16:12;35.90;;;21.27;;
24407;SDS011;12542;50.924;4.516;2023-09-12T03:18:39;37.22;;;21.17;;
24407;SDS011;12542;50.924;4.516;2023-09-12T03:21:05;39.15;;;21.45;;
24407;SDS011;12542;50.924;4.516;2023-09-12T03:23:31;34.63;;;19.83;;
24407;SDS011;12542;50.924;4.516;2023-09-12T03:26:03;40.40;;;23.55;;
24407;SDS011;12542;50.924;4.516;2023-09-12T03:28:30;33.97;;;20.27;;
24407;SDS011;12542;50.924;4.516;2023-09-12T03:31:07;35.83;;;20.45;;
24407;SDS011;12542;50.924;4.516;2023-09-12T03:33:37;36.75;;;21.17;;
24407;SDS011;12542;50.924;4.516;2023-09-12T03:36:04;36.95;;;20.73;;
24407;SDS011;12542;50.924;4.516;2023-09-12T03:38:31;33.72;;;20.60;;
24407;SDS011;12542;50.924;4.516;2023-09-12T03:40:57;36.60;;;19.98;;
24407;SDS011;12542;50.924;4.516;2023-09-12T03:43:22;38.67;;;21.17;;
24407;SDS011;12542;50.924;4.516;2023-09-12T03:45:48;41.63;;;22.08;;
24407;SDS011;12542;50.924;4.516;2023-09-12T03:48:14;36.78;;;21.00;;
24407;SDS011;12542;50.924;4.516;2023-09-12T03:50:40;34.17;;;19.98;;
24407;SDS011;12542;50.924;4.516;2023-09-12T03:53:05;37.60;;;20.05;;
24407;SDS011;12542;50.924;4.516;2023-09-12T03:55:34;36.47;;;21.10;;
24407;SDS011;12542;50.924;4.516;2023-09-12T03:58:00;33.55;;;20.40;;
24407;SDS011;12542;50.924;4.516;2023-09-12T04:00:25;35.25;;;20.15;;
24407;SDS011;12542;50.924;4.516;2023-09-12T04:02:51;34.03;;;20.38;;
24407;SDS011;12542;50.924;4.516;2023-09-12T04:05:17;36.95;;;20.98;;
24407;SDS011;12542;50.924;4.516;2023-09-12T04:07:42;36.95;;;19.75;;
24407;SDS011;12542;50.924;4.516;2023-09-12T04:10:08;32.85;;;19.73;;
24407;SDS011;12542;50.924;4.516;2023-09-12T04:12:34;32.67;;;19.70;;
24407;SDS011;12542;50.924;4.516;2023-09-12T04:15:02;35.50;;;19.20;;
24407;SDS011;12542;50.924;4.516;2023-09-12T04:17:29;33.72;;;18.90;;
24407;SDS011;12542;50.924;4.516;2023-09-12T04:19:57;36.72;;;21.10;;
24407;SDS011;12542;50.924;4.516;2023-09-12T04:22:22;32.58;;;18.95;;
24407;SDS011;12542;50.924;4.516;2023-09-12T04:24:48;34.35;;;20.10;;
24407;SDS011;12542;50.924;4.516;2023-09-12T04:27:14;31.58;;;19.63;;
24407;SDS011;12542;50.924;4.516;2023-09-12T04:29:39;37.50;;;21.00;;
24407;SDS011;12542;50.924;4.516;2023-09-12T04:32:07;32.95;;;20.52;;
24407;SDS011;12542;50.924;4.516;2023-09-12T04:34:34;36.72;;;21.05;;
24407;SDS011;12542;50.924;4.516;2023-09-12T04:37:00;37.33;;;21.67;;
24407;SDS011;12542;50.924;4.516;2023-09-12T04:39:27;35.15;;;21.52;;
24407;SDS011;12542;50.924;4.516;2023-09-12T04:41:55;40.70;;;23.40;;
24407;SDS011;12542;50.924;4.516;2023-09-12T04:44:20;40.05;;;22.35;;
24407;SDS011;12542;50.924;4.516;2023-09-12T04:46:48;38.17;;;20.80;;
24407;SDS011;12542;50.924;4.516;2023-09-12T04:49:14;38.88;;;23.10;;
24407;SDS011;12542;50.924;4.516;2023-09-12T04:51:39;43.65;;;23.23;;
24407;SDS011;12542;50.924;4.516;2023-09-12T04:54:05;38.85;;;22.10;;
24407;SDS011;12542;50.924;4.516;2023-09-12T04:56:31;43.00;;;22.50;;
24407;SDS011;12542;50.924;4.516;2023-09-12T04:58:57;44.38;;;23.70;;
24407;SDS011;12542;50.924;4.516;2023-09-12T05:01:22;43.45;;;24.08;;
24407;SDS011;12542;50.924;4.516;2023-09-12T05:03:48;44.85;;;22.95;;
24407;SDS011;12542;50.924;4.516;2023-09-12T05:06:13;42.03;;;22.80;;
24407;SDS011;12542;50.924;4.516;2023-09-12T05:08:39;44.60;;;24.42;;
24407;SDS011;12542;50.924;4.516;2023-09-12T05:11:05;42.72;;;23.77;;
24407;SDS011;12542;50.924;4.516;2023-09-12T05:13:33;38.75;;;22.35;;
24407;SDS011;12542;50.924;4.516;2023-09-12T05:15:59;38.00;;;21.83;;
24407;SDS011;12542;50.924;4.516;2023-09-12T05:18:24;35.78;;;21.80;;
24407;SDS011;12542;50.924;4.516;2023-09-12T05:20:50;35.13;;;20.85;;
24407;SDS011;12542;50.924;4.516;2023-09-12T05:23:16;36.65;;;20.77;;
24407;SDS011;12542;50.924;4.516;2023-09-12T05:25:41;34.25;;;19.42;;
24407;SDS011;12542;50.924;4.516;2023-09-12T05:28:07;36.35;;;20.92;;
24407;SDS011;12542;50.924;4.516;2023-09-12T05:30:33;40.63;;;21.90;;
24407;SDS011;12542;50.924;4.516;2023-09-12T05:32:58;37.00;;;21.70;;
24407;SDS011;12542;50.924;4.516;2023-09-12T05:35:24;37.20;;;20.38;;
24407;SDS011;12542;50.924;4.516;2023-09-12T05:37:50;43.55;;;22.88;;
24407;SDS011;12542;50.924;4.516;2023-09-12T05:40:17;35.20;;;20.88;;
24407;SDS011;12542;50.924;4.516;2023-09-12T05:42:43;39.92;;;22.08;;
24407;SDS011;12542;50.924;4.516;2023-09-12T05:45:09;37.03;;;20.58;;
24407;SDS011;12542;50.924;4.516;2023-09-12T05:47:35;36.28;;;21.08;;
24407;SDS011;12542;50.924;4.516;2023-09-12T05:50:03;36.60;;;19.75;;
24407;SDS011;12542;50.924;4.516;2023-09-12T05:52:31;37.05;;;20.52;;
24407;SDS011;12542;50.924;4.516;2023-09-12T05:55:00;36.72;;;20.42;;
24407;SDS011;12542;50.924;4.516;2023-09-12T05:57:26;32.28;;;19.65;;
24407;SDS011;12542;50.924;4.516;2023-09-12T05:59:52;40.17;;;20.88;;
24407;SDS011;12542;50.924;4.516;2023-09-12T06:02:17;34.15;;;19.80;;
24407;SDS011;12542;50.924;4.516;2023-09-12T06:04:44;38.10;;;19.85;;
24407;SDS011;12542;50.924;4.516;2023-09-12T06:07:09;33.40;;;18.55;;
24407;SDS011;12542;50.924;4.516;2023-09-12T06:09:36;29.92;;;17.70;;
24407;SDS011;12542;50.924;4.516;2023-09-12T06:12:01;31.98;;;17.52;;
24407;SDS011;12542;50.924;4.516;2023-09-12T06:14:28;29.83;;;17.98;;
24407;SDS011;12542;50.924;4.516;2023-09-12T06:16:54;27.83;;;18.33;;
24407;SDS011;12542;50.924;4.516;2023-09-12T06:19:19;28.98;;;17.80;;
24407;SDS011;12542;50.924;4.516;2023-09-12T06:21:45;30.30;;;18.33;;
24407;SDS011;12542;50.924;4.516;2023-09-12T06:24:12;26.98;;;17.05;;
24407;SDS011;12542;50.924;4.516;2023-09-12T06:26:41;29.55;;;16.85;;
24407;SDS011;12542;50.924;4.516;2023-09-12T06:29:07;32.33;;;17.52;;
24407;SDS011;12542;50.924;4.516;2023-09-12T06:31:33;26.63;;;17.05;;
24407;SDS011;12542;50.924;4.516;2023-09-12T06:34:00;28.95;;;16.85;;
24407;SDS011;12542;50.924;4.516;2023-09-12T06:36:27;28.88;;;17.52;;
24407;SDS011;12542;50.924;4.516;2023-09-12T06:38:58;26.95;;;16.42;;
24407;SDS011;12542;50.924;4.516;2023-09-12T06:41:24;30.80;;;18.85;;
24407;SDS011;12542;50.924;4.516;2023-09-12T06:43:51;27.42;;;17.52;;
24407;SDS011;12542;50.924;4.516;2023-09-12T06:46:17;32.25;;;19.48;;
24407;SDS011;12542;50.924;4.516;2023-09-12T06:48:43;28.98;;;19.25;;
24407;SDS011;12542;50.924;4.516;2023-09-12T06:51:14;30.17;;;19.15;;
24407;SDS011;12542;50.924;4.516;2023-09-12T06:53:40;31.23;;;20.33;;
24407;SDS011;12542;50.924;4.516;2023-09-12T06:56:05;38.33;;;21.08;;
24407;SDS011;12542;50.924;4.516;2023-09-12T06:58:31;31.40;;;21.25;;
24407;SDS011;12542;50.924;4.516;2023-09-12T07:01:01;30.60;;;19.27;;
24407;SDS011;12542;50.924;4.516;2023-09-12T07:03:28;27.98;;;18.02;;
24407;SDS011;12542;50.924;4.516;2023-09-12T07:05:53;39.10;;;19.13;;
24407;SDS011;12542;50.924;4.516;2023-09-12T07:08:19;29.83;;;19.08;;
24407;SDS011;12542;50.924;4.516;2023-09-12T07:10:45;33.90;;;20.67;;
24407;SDS011;12542;50.924;4.516;2023-09-12T07:13:11;32.30;;;19.48;;
24407;SDS011;12542;50.924;4.516;2023-09-12T07:15:36;32.17;;;19.10;;
24407;SDS011;12542;50.924;4.516;2023-09-12T07:18:02;34.65;;;20.60;;
24407;SDS011;12542;50.924;4.516;2023-09-12T07:20:29;33.95;;;18.92;;
24407;SDS011;12542;50.924;4.516;2023-09-12T07:22:54;35.42;;;19.77;;
24407;SDS011;12542;50.924;4.516;2023-09-12T07:25:20;33.80;;;19.67;;
24407;SDS011;12542;50.924;4.516;2023-09-12T07:27:48;37.15;;;20.70;;
24407;SDS011;12542;50.924;4.516;2023-09-12T07:30:15;37.28;;;20.85;;
24407;SDS011;12542;50.924;4.516;2023-09-12T07:32:41;37.05;;;21.00;;
24407;SDS011;12542;50.924;4.516;2023-09-12T07:35:06;41.75;;;22.20;;
24407;SDS011;12542;50.924;4.516;2023-09-12T07:37:32;40.90;;;20.50;;
24407;SDS011;12542;50.924;4.516;2023-09-12T07:39:58;33.13;;;20.02;;
24407;SDS011;12542;50.924;4.516;2023-09-12T07:42:24;36.88;;;19.70;;
24407;SDS011;12542;50.924;4.516;2023-09-12T07:44:49;34.53;;;19.20;;
24407;SDS011;12542;50.924;4.516;2023-09-12T07:47:18;30.23;;;17.58;;
24407;SDS011;12542;50.924;4.516;2023-09-12T07:49:44;31.08;;;16.35;;
24407;SDS011;12542;50.924;4.516;2023-09-12T07:52:10;32.50;;;18.08;;
24407;SDS011;12542;50.924;4.516;2023-09-12T07:54:35;32.20;;;17.73;;
24407;SDS011;12542;50.924;4.516;2023-09-12T07:57:02;28.02;;;17.00;;
24407;SDS011;12542;50.924;4.516;2023-09-12T07:59:28;31.50;;;18.23;;
24407;SDS011;12542;50.924;4.516;2023-09-12T08:01:53;29.20;;;17.15;;
24407;SDS011;12542;50.924;4.516;2023-09-12T08:04:19;30.27;;;18.42;;
24407;SDS011;12542;50.924;4.516;2023-09-12T08:06:45;29.10;;;18.10;;
24407;SDS011;12542;50.924;4.516;2023-09-12T08:09:10;29.40;;;17.40;;
24407;SDS011;12542;50.924;4.516;2023-09-12T08:11:36;26.63;;;16.60;;
24407;SDS011;12542;50.924;4.516;2023-09-12T08:14:02;26.73;;;16.05;;
24407;SDS011;12542;50.924;4.516;2023-09-12T08:16:27;28.83;;;17.73;;
24407;SDS011;12542;50.924;4.516;2023-09-12T08:18:53;29.05;;;16.73;;
24407;SDS011;12542;50.924;4.516;2023-09-12T08:21:19;28.63;;;18.33;;
24407;SDS011;12542;50.924;4.516;2023-09-12T08:23:45;30.15;;;16.45;;
24407;SDS011;12542;50.924;4.516;2023-09-12T08:26:10;32.28;;;17.25;;
24407;SDS011;12542;50.924;4.516;2023-09-12T08:28:36;31.35;;;16.13;;
24407;SDS011;12542;50.924;4.516;2023-09-12T08:31:02;28.65;;;16.45;;
24407;SDS011;12542;50.924;4.516;2023-09-12T08:33:27;29.63;;;17.30;;
24407;SDS011;12542;50.924;4.516;2023-09-12T08:35:53;29.25;;;15.63;;
24407;SDS011;12542;50.924;4.516;2023-09-12T08:38:19;31.63;;;16.58;;
24407;SDS011;12542;50.924;4.516;2023-09-12T08:40:51;27.30;;;14.77;;
24407;SDS011;12542;50.924;4.516;2023-09-12T08:43:17;26.67;;;16.23;;
24407;SDS011;12542;50.924;4.516;2023-09-12T08:45:43;28.77;;;15.95;;
24407;SDS011;12542;50.924;4.516;2023-09-12T08:48:09;29.83;;;16.73;;
24407;SDS011;12542;50.924;4.516;2023-09-12T08:50:37;25.58;;;15.98;;
24407;SDS011;12542;50.924;4.516;2023-09-12T08:53:03;31.60;;;16.83;;
24407;SDS011;12542;50.924;4.516;2023-09-12T08:55:29;26.48;;;15.27;;
24407;SDS011;12542;50.924;4.516;2023-09-12T08:57:58;24.20;;;15.60;;
24407;SDS011;12542;50.924;4.516;2023-09-12T09:00:25;24.45;;;14.80;;
24407;SDS011;12542;50.924;4.516;2023-09-12T09:02:52;27.70;;;15.40;;
24407;SDS011;12542;50.924;4.516;2023-09-12T09:05:21;30.10;;;15.68;;
24407;SDS011;12542;50.924;4.516;2023-09-12T09:07:48;23.92;;;14.48;;
24407;SDS011;12542;50.924;4.516;2023-09-12T09:10:15;20.55;;;13.02;;
24407;SDS011;12542;50.924;4.516;2023-09-12T09:12:43;26.63;;;15.52;;
24407;SDS011;12542;50.924;4.516;2023-09-12T09:17:53;23.00;;;14.93;;
24407;SDS011;12542;50.924;4.516;2023-09-12T09:20:33;25.25;;;13.55;;
24407;SDS011;12542;50.924;4.516;2023-09-12T09:23:04;24.02;;;13.63;;
24407;SDS011;12542;50.924;4.516;2023-09-12T09:25:35;18.70;;;13.63;;
24407;SDS011;12542;50.924;4.516;2023-09-12T09:28:04;25.02;;;13.93;;
24407;SDS011;12542;50.924;4.516;2023-09-12T09:30:44;26.33;;;15.00;;
24407;SDS011;12542;50.924;4.516;2023-09-12T09:33:11;28.48;;;13.88;;
24407;SDS011;12542;50.924;4.516;2023-09-12T09:35:43;29.83;;;14.20;;
24407;SDS011;12542;50.924;4.516;2023-09-12T09:38:12;25.92;;;13.25;;
24407;SDS011;12542;50.924;4.516;2023-09-12T09:40:42;20.83;;;12.40;;
24407;SDS011;12542;50.924;4.516;2023-09-12T09:43:09;25.38;;;12.48;;
24407;SDS011;12542;50.924;4.516;2023-09-12T09:45:42;20.33;;;10.48;;
24407;SDS011;12542;50.924;4.516;2023-09-12T09:48:22;17.90;;;9.95;;
24407;SDS011;12542;50.924;4.516;2023-09-12T09:50:49;19.88;;;9.55;;
24407;SDS011;12542;50.924;4.516;2023-09-12T09:53:17;12.55;;;8.15;;
24407;SDS011;12542;50.924;4.516;2023-09-12T09:55:51;13.38;;;8.07;;
24407;SDS011;12542;50.924;4.516;2023-09-12T09:58:17;20.40;;;10.90;;
24407;SDS011;12542;50.924;4.516;2023-09-12T10:00:42;18.67;;;10.77;;
24407;SDS011;12542;50.924;4.516;2023-09-12T10:03:08;22.20;;;12.25;;
24407;SDS011;12542;50.924;4.516;2023-09-12T10:05:36;17.55;;;9.23;;
24407;SDS011;12542;50.924;4.516;2023-09-12T10:08:06;19.40;;;10.52;;
24407;SDS011;12542;50.924;4.516;2023-09-12T10:10:34;18.77;;;10.23;;
24407;SDS011;12542;50.924;4.516;2023-09-12T10:13:03;18.75;;;10.15;;
24407;SDS011;12542;50.924;4.516;2023-09-12T10:15:30;19.05;;;10.98;;
24407;SDS011;12542;50.924;4.516;2023-09-12T10:17:56;12.38;;;7.70;;
24407;SDS011;12542;50.924;4.516;2023-09-12T10:20:37;12.57;;;7.22;;
24407;SDS011;12542;50.924;4.516;2023-09-12T10:23:33;13.13;;;7.78;;
24407;SDS011;12542;50.924;4.516;2023-09-12T10:26:02;14.20;;;6.28;;
24407;SDS011;12542;50.924;4.516;2023-09-12T10:28:28;13.80;;;8.07;;
24407;SDS011;12542;50.924;4.516;2023-09-12T10:30:54;13.07;;;7.07;;
24407;SDS011;12542;50.924;4.516;2023-09-12T10:33:22;12.10;;;6.40;;
24407;SDS011;12542;50.924;4.516;2023-09-12T10:35:50;16.25;;;8.32;;
24407;SDS011;12542;50.924;4.516;2023-09-12T10:38:18;19.67;;;10.75;;
24407;SDS011;12542;50.924;4.516;2023-09-12T10:40:45;21.85;;;11.05;;
24407;SDS011;12542;50.924;4.516;2023-09-12T10:43:12;19.15;;;11.68;;
24407;SDS011;12542;50.924;4.516;2023-09-12T10:45:39;19.88;;;11.60;;
24407;SDS011;12542;50.924;4.516;2023-09-12T10:48:06;21.40;;;10.88;;
24407;SDS011;12542;50.924;4.516;2023-09-12T10:50:34;20.58;;;11.63;;
24407;SDS011;12542;50.924;4.516;2023-09-12T10:53:13;19.60;;;11.40;;
24407;SDS011;12542;50.924;4.516;2023-09-12T10:55:40;19.40;;;11.95;;
24407;SDS011;12542;50.924;4.516;2023-09-12T10:58:25;19.00;;;12.23;;
24407;SDS011;12542;50.924;4.516;2023-09-12T11:03:49;22.40;;;13.02;;
24407;SDS011;12542;50.924;4.516;2023-09-12T11:06:22;23.60;;;14.38;;
24407;SDS011;12542;50.924;4.516;2023-09-12T11:11:43;23.02;;;12.45;;
24407;SDS011;12542;50.924;4.516;2023-09-12T11:14:13;23.35;;;12.20;;
24407;SDS011;12542;50.924;4.516;2023-09-12T11:16:40;15.32;;;10.20;;
24407;SDS011;12542;50.924;4.516;2023-09-12T11:19:13;22.23;;;11.23;;
24407;SDS011;12542;50.924;4.516;2023-09-12T11:21:44;18.95;;;11.18;;
24407;SDS011;12542;50.924;4.516;2023-09-12T11:24:14;15.68;;;10.82;;
24407;SDS011;12542;50.924;4.516;2023-09-12T11:29:44;13.82;;;8.70;;
24407;SDS011;12542;50.924;4.516;2023-09-12T11:32:08;16.58;;;9.23;;
24407;SDS011;12542;50.924;4.516;2023-09-12T11:34:41;16.02;;;9.50;;
24407;SDS011;12542;50.924;4.516;2023-09-12T11:37:08;16.27;;;9.15;;
24407;SDS011;12542;50.924;4.516;2023-09-12T11:39:35;15.60;;;8.77;;
24407;SDS011;12542;50.924;4.516;2023-09-12T11:42:02;16.48;;;10.02;;
24407;SDS011;12542;50.924;4.516;2023-09-12T11:44:29;12.15;;;7.97;;
24407;SDS011;12542;50.924;4.516;2023-09-12T11:46:57;14.55;;;8.88;;
24407;SDS011;12542;50.924;4.516;2023-09-12T11:52:03;11.70;;;7.80;;
24407;SDS011;12542;50.924;4.516;2023-09-12T11:54:32;13.88;;;7.60;;
24407;SDS011;12542;50.924;4.516;2023-09-12T11:56:58;13.68;;;8.35;;
24407;SDS011;12542;50.924;4.516;2023-09-12T11:59:31;13.60;;;8.40;;
24407;SDS011;12542;50.924;4.516;2023-09-12T12:01:57;14.45;;;9.18;;
24407;SDS011;12542;50.924;4.516;2023-09-12T12:04:23;14.60;;;8.52;;
24407;SDS011;12542;50.924;4.516;2023-09-12T12:06:52;12.30;;;8.07;;
24407;SDS011;12542;50.924;4.516;2023-09-12T12:09:18;12.10;;;7.63;;
24407;SDS011;12542;50.924;4.516;2023-09-12T12:11:48;12.23;;;9.40;;
24407;SDS011;12542;50.924;4.516;2023-09-12T12:14:14;12.02;;;6.97;;
24407;SDS011;12542;50.924;4.516;2023-09-12T12:16:42;15.35;;;7.25;;
24407;SDS011;12542;50.924;4.516;2023-09-12T12:19:11;15.32;;;7.43;;
24407;SDS011;12542;50.924;4.516;2023-09-12T12:21:41;15.27;;;8.90;;
24407;SDS011;12542;50.924;4.516;2023-09-12T12:24:10;14.70;;;8.02;;
24407;SDS011;12542;50.924;4.516;2023-09-12T12:26:37;12.23;;;7.38;;
24407;SDS011;12542;50.924;4.516;2023-09-12T12:29:05;12.70;;;8.35;;
24407;SDS011;12542;50.924;4.516;2023-09-12T12:31:31;12.18;;;6.90;;
24407;SDS011;12542;50.924;4.516;2023-09-12T12:33:59;13.15;;;6.30;;
24407;SDS011;12542;50.924;4.516;2023-09-12T12:36:25;9.85;;;5.97;;
24407;SDS011;12542;50.924;4.516;2023-09-12T12:38:52;15.15;;;6.47;;
24407;SDS011;12542;50.924;4.516;2023-09-12T12:41:26;9.65;;;7.07;;
24407;SDS011;12542;50.924;4.516;2023-09-12T12:43:53;13.48;;;6.20;;
24407;SDS011;12542;50.924;4.516;2023-09-12T12:46:24;10.95;;;6.43;;
24407;SDS011;12542;50.924;4.516;2023-09-12T12:48:50;10.48;;;6.30;;
24407;SDS011;12542;50.924;4.516;2023-09-12T12:51:16;8.82;;;6.00;;
24407;SDS011;12542;50.924;4.516;2023-09-12T12:53:44;9.70;;;6.20;;
24407;SDS011;12542;50.924;4.516;2023-09-12T12:56:12;11.35;;;6.00;;
24407;SDS011;12542;50.924;4.516;2023-09-12T12:59:01;11.07;;;6.47;;
24407;SDS011;12542;50.924;4.516;2023-09-12T13:01:32;9.70;;;6.70;;
24407;SDS011;12542;50.924;4.516;2023-09-12T13:03:58;11.00;;;6.47;;
24407;SDS011;12542;50.924;4.516;2023-09-12T13:06:24;9.70;;;7.03;;
24407;SDS011;12542;50.924;4.516;2023-09-12T13:08:52;12.30;;;6.78;;
24407;SDS011;12542;50.924;4.516;2023-09-12T13:11:18;10.02;;;6.70;;
24407;SDS011;12542;50.924;4.516;2023-09-12T13:13:43;13.80;;;6.45;;
24407;SDS011;12542;50.924;4.516;2023-09-12T13:16:11;14.68;;;6.15;;
24407;SDS011;12542;50.924;4.516;2023-09-12T13:18:38;11.32;;;6.70;;
24407;SDS011;12542;50.924;4.516;2023-09-12T13:21:04;9.73;;;6.10;;
24407;SDS011;12542;50.924;4.516;2023-09-12T13:23:31;8.63;;;6.07;;
24407;SDS011;12542;50.924;4.516;2023-09-12T13:25:58;9.18;;;6.13;;
24407;SDS011;12542;50.924;4.516;2023-09-12T13:28:24;11.50;;;6.60;;
24407;SDS011;12542;50.924;4.516;2023-09-12T13:30:52;10.30;;;6.05;;
24407;SDS011;12542;50.924;4.516;2023-09-12T13:33:18;11.77;;;6.45;;
24407;SDS011;12542;50.924;4.516;2023-09-12T13:35:44;10.85;;;6.13;;
24407;SDS011;12542;50.924;4.516;2023-09-12T13:38:11;13.43;;;6.03;;
24407;SDS011;12542;50.924;4.516;2023-09-12T13:40:37;10.63;;;6.20;;
24407;SDS011;12542;50.924;4.516;2023-09-12T13:43:06;8.57;;;5.93;;
24407;SDS011;12542;50.924;4.516;2023-09-12T13:45:32;10.48;;;5.97;;
24407;SDS011;12542;50.924;4.516;2023-09-12T13:47:58;10.00;;;5.35;;
24407;SDS011;12542;50.924;4.516;2023-09-12T13:50:25;9.00;;;6.07;;
24407;SDS011;12542;50.924;4.516;2023-09-12T13:52:53;9.48;;;5.57;;
24407;SDS011;12542;50.924;4.516;2023-09-12T13:55:20;11.07;;;5.90;;
24407;SDS011;12542;50.924;4.516;2023-09-12T13:57:47;10.10;;;6.03;;
24407;SDS011;12542;50.924;4.516;2023-09-12T14:00:12;10.65;;;7.07;;
24407;SDS011;12542;50.924;4.516;2023-09-12T14:02:38;12.60;;;6.80;;
24407;SDS011;12542;50.924;4.516;2023-09-12T14:05:04;10.75;;;6.70;;
24407;SDS011;12542;50.924;4.516;2023-09-12T14:07:30;9.65;;;6.68;;
24407;SDS011;12542;50.924;4.516;2023-09-12T14:09:56;10.30;;;5.80;;
24407;SDS011;12542;50.924;4.516;2023-09-12T14:12:23;10.63;;;6.30;;
24407;SDS011;12542;50.924;4.516;2023-09-12T14:14:49;10.23;;;6.47;;
24407;SDS011;12542;50.924;4.516;2023-09-12T14:17:14;8.68;;;6.28;;
24407;SDS011;12542;50.924;4.516;2023-09-12T14:19:40;10.88;;;6.82;;
24407;SDS011;12542;50.924;4.516;2023-09-12T14:22:06;10.60;;;6.45;;
24407;SDS011;12542;50.924;4.516;2023-09-12T14:24:32;14.85;;;7.65;;
24407;SDS011;12542;50.924;4.516;2023-09-12T14:26:57;14.13;;;7.53;;
24407;SDS011;12542;50.924;4.516;2023-09-12T14:29:23;10.63;;;6.85;;
24407;SDS011;12542;50.924;4.516;2023-09-12T14:31:52;10.23;;;7.30;;
24407;SDS011;12542;50.924;4.516;2023-09-12T14:34:26;12.43;;;6.88;;
24407;SDS011;12542;50.924;4.516;2023-09-12T14:36:55;13.57;;;7.70;;
24407;SDS011;12542;50.924;4.516;2023-09-12T14:39:21;9.35;;;6.82;;
24407;SDS011;12542;50.924;4.516;2023-09-12T14:41:48;11.60;;;7.50;;
24407;SDS011;12542;50.924;4.516;2023-09-12T14:44:23;12.13;;;6.60;;
24407;SDS011;12542;50.924;4.516;2023-09-12T14:46:49;10.25;;;6.35;;
24407;SDS011;12542;50.924;4.516;2023-09-12T14:49:15;11.60;;;6.60;;